East Templeton, Massachusetts
Current Conditions -  °F | °C
As of 7:52 AM on Friday 28 Nov 2014 (Local Time) from KFIT Reporting Station
Overcast Overcast  
Wind Chill: 23°   Ceiling: 7500
Heat Index: 28°   Visibility: 10mi
Dew Point: 21°   Wind: 5mph
Humidity: 75%   Direction: 320°NW
Pressure: 30.06"   Gusts: NA
Location:  42.56°N, 72.04°W
Report Text: KFIT 281252Z AUTO 32004KT 10SM BKN075 OVC090 M02/M06 A3006 RMK AO2 SLP183 T10221061
Loading
Personal Weather Stations






























Interactive Weather Map New forecast layout! Learn more

10-Day Weather Forecast

Advertisements
Track Severe Weather on mobile